Time;durP1;ratioP1;P1;durP2;ratioP2;P2;SDS_P1;SDS_P2;PMS_P1;PMS_P2;Temp;Humidity;BMP_temperature;BMP_pressure;BME280_temperature;BME280_humidity;BME280_pressure;Samples;Min_cycle;Max_cycle;Signal;HPM_P1;HPM_P2
2022/04/27 00:01:50;;;;;;;12.65;7.45;;;7.20;99.90;;;;;;5002798;28;20488;-67
2022/04/27 00:04:15;;;;;;;10.50;7.82;;;7.10;99.90;;;;;;5002734;28;20061;-67
2022/04/27 00:06:41;;;;;;;11.38;7.18;;;7.10;99.90;;;;;;5005857;28;20061;-67
2022/04/27 00:09:06;;;;;;;14.30;8.20;;;7.10;99.90;;;;;;5004869;28;20038;-67
2022/04/27 00:11:32;;;;;;;13.27;7.45;;;7.20;99.90;;;;;;5003967;28;20049;-67
2022/04/27 00:14:00;;;;;;;12.30;8.35;;;7.20;99.90;;;;;;5005768;28;20514;-67
2022/04/27 00:16:26;;;;;;;8.73;7.60;;;7.10;99.90;;;;;;5004591;28;20038;-67
2022/04/27 00:18:52;;;;;;;12.60;7.57;;;7.20;99.90;;;;;;5003036;28;20041;-67
2022/04/27 00:21:18;;;;;;;11.10;7.40;;;7.10;99.90;;;;;;5005499;28;20030;-67
2022/04/27 00:23:43;;;;;;;10.57;7.25;;;7.10;99.90;;;;;;5004034;28;20393;-67
2022/04/27 00:26:09;;;;;;;11.45;7.72;;;7.10;99.90;;;;;;5004541;28;20480;-67
2022/04/27 00:28:35;;;;;;;15.45;7.40;;;7.10;99.90;;;;;;5003901;28;20117;-67
2022/04/27 00:31:00;;;;;;;13.07;8.40;;;7.20;99.90;;;;;;5003355;28;20113;-67
2022/04/27 00:33:26;;;;;;;14.63;8.32;;;7.10;99.90;;;;;;5003576;28;20048;-67
2022/04/27 00:35:52;;;;;;;11.77;9.35;;;7.10;99.90;;;;;;5004869;28;20093;-67
2022/04/27 00:38:18;;;;;;;16.88;9.80;;;7.20;99.90;;;;;;5003151;28;20057;-67
2022/04/27 00:40:44;;;;;;;11.88;9.00;;;7.10;99.90;;;;;;5004865;28;20439;-67
2022/04/27 00:43:12;;;;;;;11.63;7.75;;;7.10;99.90;;;;;;5002923;28;20042;-67
2022/04/27 00:45:38;;;;;;;12.23;8.63;;;7.20;99.90;;;;;;5003378;28;20121;-67
2022/04/27 00:48:04;;;;;;;15.98;7.60;;;7.20;99.90;;;;;;5005153;28;20500;-67
2022/04/27 00:50:29;;;;;;;10.82;7.75;;;7.20;99.90;;;;;;5002471;28;20046;-67
2022/04/27 00:52:55;;;;;;;7.88;6.85;;;7.20;99.90;;;;;;5003592;28;20124;-67
2022/04/27 00:55:21;;;;;;;10.15;8.45;;;7.20;99.90;;;;;;5004980;28;20037;-67
2022/04/27 00:57:47;;;;;;;11.98;8.18;;;7.30;99.90;;;;;;5003357;28;20557;-67
2022/04/27 01:00:16;;;;;;;10.95;7.93;;;7.30;99.90;;;;;;5003762;28;20511;-67
2022/04/27 01:02:43;;;;;;;13.95;8.20;;;7.30;99.90;;;;;;5004963;28;20034;-67
2022/04/27 01:05:11;;;;;;;10.90;7.38;;;7.30;99.90;;;;;;5003551;28;20030;-67
2022/04/27 01:07:41;;;;;;;11.43;7.63;;;7.30;99.90;;;;;;5003091;28;20480;-67
2022/04/27 01:10:09;;;;;;;10.80;8.38;;;7.30;99.90;;;;;;5000247;28;20065;-67
2022/04/27 01:12:35;;;;;;;12.77;9.30;;;7.30;99.90;;;;;;5002128;28;20042;-67
2022/04/27 01:15:02;;;;;;;11.60;7.22;;;7.30;99.90;;;;;;5004754;28;20113;-67
2022/04/27 01:17:27;;;;;;;11.65;7.93;;;7.30;99.90;;;;;;5001642;28;20594;-67
2022/04/27 01:19:53;;;;;;;10.55;8.05;;;7.30;99.90;;;;;;5003520;28;20045;-67
2022/04/27 01:22:19;;;;;;;9.27;7.18;;;7.30;99.90;;;;;;5004200;28;20385;-67
2022/04/27 01:24:44;;;;;;;16.30;8.23;;;7.40;99.90;;;;;;5001098;28;20088;-67
2022/04/27 01:27:10;;;;;;;13.18;8.73;;;7.40;99.90;;;;;;5002550;28;20037;-67
2022/04/27 01:29:37;;;;;;;11.98;8.73;;;7.40;99.90;;;;;;5003773;28;20042;-67
2022/04/27 01:32:03;;;;;;;13.40;8.07;;;7.40;99.90;;;;;;5000780;28;20073;-67
2022/04/27 01:34:29;;;;;;;11.50;8.13;;;7.40;99.90;;;;;;5004321;28;20077;-67
2022/04/27 01:36:54;;;;;;;16.58;8.32;;;7.40;99.90;;;;;;5001857;28;20042;-67
2022/04/27 01:39:23;;;;;;;11.35;8.23;;;7.40;99.90;;;;;;5002355;28;20045;-67
2022/04/27 01:41:49;;;;;;;13.63;8.73;;;7.50;99.90;;;;;;5000026;28;20039;-67
2022/04/27 01:44:15;;;;;;;12.13;7.72;;;7.40;99.90;;;;;;5003184;28;20038;-67
2022/04/27 01:46:41;;;;;;;13.38;9.75;;;7.40;99.90;;;;;;5003860;28;20113;-67
2022/04/27 01:49:06;;;;;;;15.52;8.75;;;7.40;99.90;;;;;;5000688;28;20042;-67
2022/04/27 01:54:16;;;;;;;15.13;9.57;;;7.50;99.90;;;;;;5001800;28;20042;-67
2022/04/27 01:56:47;;;;;;;12.27;8.43;;;7.50;99.90;;;;;;5002199;28;20488;-67
2022/04/27 01:59:13;;;;;;;13.90;8.25;;;7.50;99.90;;;;;;5000510;28;20503;-67
2022/04/27 02:01:39;;;;;;;14.15;9.95;;;7.50;99.90;;;;;;5002273;28;20080;-67
2022/04/27 02:04:05;;;;;;;18.10;9.70;;;7.50;99.90;;;;;;5002710;28;20515;-67
2022/04/27 02:06:31;;;;;;;14.73;9.15;;;7.50;99.90;;;;;;5000685;28;20027;-67
2022/04/27 02:08:57;;;;;;;13.18;8.48;;;7.50;99.90;;;;;;5001414;28;20159;-67
2022/04/27 02:11:24;;;;;;;15.52;9.20;;;7.50;99.90;;;;;;5002195;28;20099;-67
2022/04/27 02:13:54;;;;;;;13.77;9.63;;;7.50;99.90;;;;;;4997975;28;20052;-67
2022/04/27 02:16:24;;;;;;;20.17;10.35;;;7.50;99.90;;;;;;5002194;28;20042;-67
2022/04/27 02:18:50;;;;;;;13.00;9.02;;;7.50;99.90;;;;;;4998849;28;20061;-67
2022/04/27 02:21:16;;;;;;;16.08;9.20;;;7.50;99.90;;;;;;5002573;28;20033;-67
2022/04/27 02:23:42;;;;;;;10.40;8.35;;;7.50;99.90;;;;;;5002813;28;20412;-67
2022/04/27 02:26:08;;;;;;;14.57;8.65;;;7.50;99.90;;;;;;5001125;28;20030;-67
2022/04/27 02:28:33;;;;;;;15.70;9.15;;;7.40;99.90;;;;;;5001912;28;20042;-67
2022/04/27 02:30:59;;;;;;;10.93;8.70;;;7.40;99.90;;;;;;5002193;28;20109;-67
2022/04/27 02:33:25;;;;;;;24.17;10.43;;;7.30;99.90;;;;;;5001311;28;20092;-67
2022/04/27 02:35:50;;;;;;;12.82;8.95;;;7.30;99.90;;;;;;5003466;28;20048;-67
2022/04/27 02:38:16;;;;;;;18.00;9.13;;;7.30;99.90;;;;;;5001828;28;20038;-67
2022/04/27 02:40:41;;;;;;;13.65;9.00;;;7.30;99.90;;;;;;5000381;28;20038;-67
2022/04/27 02:43:07;;;;;;;16.42;9.57;;;7.20;99.90;;;;;;5002130;28;20439;-67
2022/04/27 02:45:33;;;;;;;15.57;8.95;;;7.20;99.90;;;;;;5001259;28;20065;-67
2022/04/27 02:47:58;;;;;;;14.02;9.02;;;7.20;99.90;;;;;;5001950;28;20083;-67
2022/04/27 02:53:08;;;;;;;13.98;10.35;;;7.20;99.90;;;;;;5002571;28;20054;-67
2022/04/27 02:55:33;;;;;;;13.63;9.48;;;7.20;99.90;;;;;;5001554;28;20038;-67
2022/04/27 02:57:59;;;;;;;14.25;9.88;;;7.20;99.90;;;;;;5002380;28;20033;-67
2022/04/27 03:00:24;;;;;;;12.73;9.65;;;7.20;99.90;;;;;;5002143;28;20054;-67
2022/04/27 03:02:50;;;;;;;13.05;9.15;;;7.10;99.90;;;;;;5000822;28;20432;-67
2022/04/27 03:05:16;;;;;;;14.52;10.43;;;7.10;99.90;;;;;;5001451;28;20372;-67
2022/04/27 03:07:42;;;;;;;12.23;9.00;;;7.10;99.90;;;;;;5002061;28;20038;-67
2022/04/27 03:10:08;;;;;;;11.70;9.27;;;7.10;99.90;;;;;;5000669;28;20638;-67
2022/04/27 03:12:35;;;;;;;12.30;9.07;;;7.10;99.90;;;;;;4998423;28;20133;-67
2022/04/27 03:15:01;;;;;;;14.15;9.40;;;7.10;99.90;;;;;;5001755;28;20078;-67
2022/04/27 03:17:27;;;;;;;11.57;9.68;;;7.20;99.90;;;;;;5001412;28;20070;-67
2022/04/27 03:19:52;;;;;;;11.10;9.45;;;7.20;99.90;;;;;;4999182;28;20046;-67
2022/04/27 03:22:18;;;;;;;13.80;9.70;;;7.20;99.90;;;;;;5001191;28;20042;-67
2022/04/27 03:24:43;;;;;;;10.88;8.98;;;7.20;99.90;;;;;;5002059;28;20488;-67
2022/04/27 03:27:09;;;;;;;15.73;9.75;;;7.20;99.90;;;;;;5000638;28;20064;-67
2022/04/27 03:29:34;;;;;;;13.90;10.55;;;7.20;99.90;;;;;;5002599;28;20041;-67
2022/04/27 03:32:00;;;;;;;14.60;10.65;;;7.10;99.90;;;;;;5000912;28;20042;-67
2022/04/27 03:34:26;;;;;;;15.10;11.63;;;7.10;99.90;;;;;;5000154;28;20038;-67
2022/04/27 03:36:51;;;;;;;17.73;12.52;;;7.10;99.90;;;;;;5005458;28;20491;-67
2022/04/27 03:39:17;;;;;;;17.10;11.15;;;7.00;99.90;;;;;;5004789;28;20439;-67
2022/04/27 03:41:42;;;;;;;16.25;11.82;;;7.10;99.90;;;;;;5005176;28;20085;-67
2022/04/27 03:44:08;;;;;;;15.98;11.05;;;7.10;99.90;;;;;;5005970;28;20080;-67
2022/04/27 03:46:33;;;;;;;14.00;10.90;;;7.00;99.90;;;;;;5003018;28;20412;-67
2022/04/27 03:48:59;;;;;;;13.23;9.68;;;7.00;99.90;;;;;;5006076;28;20044;-67
2022/04/27 03:51:24;;;;;;;15.02;10.02;;;7.00;99.90;;;;;;5005206;28;20088;-67
2022/04/27 03:53:51;;;;;;;12.20;9.48;;;7.00;99.90;;;;;;5003151;28;20038;-67
2022/04/27 03:56:16;;;;;;;13.82;9.90;;;7.10;99.90;;;;;;5006266;28;20034;-67
2022/04/27 03:58:42;;;;;;;13.02;9.32;;;7.10;99.90;;;;;;5004706;28;20038;-67
2022/04/27 04:01:07;;;;;;;13.25;10.65;;;7.10;99.90;;;;;;4986801;28;20420;-67
2022/04/27 04:03:34;;;;;;;17.92;10.27;;;7.10;99.90;;;;;;5006350;28;20057;-67
2022/04/27 04:05:59;;;;;;;15.18;9.35;;;7.20;99.90;;;;;;5002160;28;20048;-67
2022/04/27 04:08:25;;;;;;;13.40;10.23;;;7.10;99.90;;;;;;5004787;28;20042;-67
2022/04/27 04:10:50;;;;;;;15.80;9.20;;;7.20;99.90;;;;;;5003971;28;20046;-67
2022/04/27 04:13:16;;;;;;;16.45;10.65;;;7.20;99.90;;;;;;5005463;28;20611;-67
2022/04/27 04:15:42;;;;;;;14.85;9.88;;;7.20;99.90;;;;;;5004238;28;20412;-67
2022/04/27 04:18:07;;;;;;;17.30;9.82;;;7.20;99.90;;;;;;5003203;28;20080;-67
2022/04/27 04:20:33;;;;;;;17.58;10.35;;;7.20;99.90;;;;;;5004013;28;20078;-67
2022/04/27 04:22:59;;;;;;;14.38;10.05;;;7.20;99.90;;;;;;5001202;28;20030;-67
2022/04/27 04:30:53;;;;;;;18.13;9.75;;;7.30;99.90;;;;;;5004184;28;20504;-68
2022/04/27 04:33:19;;;;;;;17.15;9.60;;;7.30;99.90;;;;;;5003306;28;20034;-67
2022/04/27 04:35:44;;;;;;;13.65;9.07;;;7.30;99.90;;;;;;5004789;28;20453;-67
2022/04/27 04:38:10;;;;;;;14.65;10.90;;;7.30;99.90;;;;;;5004617;28;20034;-67
2022/04/27 04:40:36;;;;;;;18.77;10.20;;;7.30;99.90;;;;;;5002587;28;20048;-67
2022/04/27 04:43:01;;;;;;;18.23;10.10;;;7.30;99.90;;;;;;5004241;28;20069;-67
2022/04/27 04:45:27;;;;;;;15.35;10.05;;;7.40;99.90;;;;;;5004263;28;20055;-67
2022/04/27 04:47:53;;;;;;;12.07;9.90;;;7.40;99.90;;;;;;5003009;28;20030;-67
2022/04/27 04:50:18;;;;;;;11.63;10.00;;;7.30;99.90;;;;;;5004988;28;20083;-67
2022/04/27 04:52:46;;;;;;;12.50;10.30;;;7.40;99.90;;;;;;5002349;28;20488;-67
2022/04/27 04:55:12;;;;;;;16.58;11.30;;;7.40;99.90;;;;;;5003668;28;20053;-67
2022/04/27 04:57:38;;;;;;;14.88;8.98;;;7.40;99.90;;;;;;5005197;28;20389;-68
2022/04/27 05:00:05;;;;;;;16.58;10.25;;;7.40;99.90;;;;;;5003060;28;20048;-67
2022/04/27 05:02:32;;;;;;;14.60;10.50;;;7.50;99.90;;;;;;5002408;28;20034;-67
2022/04/27 05:04:58;;;;;;;17.85;10.70;;;7.50;99.90;;;;;;5003910;28;20403;-67
2022/04/27 05:07:24;;;;;;;17.55;10.80;;;7.50;99.90;;;;;;5001508;28;20046;-67
2022/04/27 05:09:50;;;;;;;13.48;10.32;;;7.60;99.90;;;;;;5003745;28;20053;-67
2022/04/27 05:12:15;;;;;;;13.52;10.48;;;7.60;99.90;;;;;;5004581;28;20031;-67
2022/04/27 05:14:41;;;;;;;14.32;10.70;;;7.60;99.90;;;;;;5002938;28;20069;-67
2022/04/27 05:17:06;;;;;;;10.30;9.27;;;7.60;99.90;;;;;;5004256;28;20029;-68
2022/04/27 05:19:32;;;;;;;16.55;11.38;;;7.60;99.90;;;;;;5003962;28;20053;-67
2022/04/27 05:21:58;;;;;;;16.45;10.88;;;7.70;99.90;;;;;;5002392;28;20046;-69
2022/04/27 05:24:23;;;;;;;12.95;9.77;;;7.70;99.90;;;;;;5004631;28;20042;-68
2022/04/27 05:26:49;;;;;;;18.88;10.57;;;7.70;99.90;;;;;;5003356;28;20042;-68
2022/04/27 05:31:59;;;;;;;14.10;10.95;;;7.80;99.90;;;;;;5003621;28;20121;-69
2022/04/27 05:34:26;;;;;;;13.75;9.82;;;7.80;99.90;;;;;;4999933;28;20121;-68
2022/04/27 05:36:52;;;;;;;17.77;11.40;;;7.80;99.90;;;;;;5002133;28;20077;-68
2022/04/27 05:39:20;;;;;;;15.85;9.98;;;7.90;99.90;;;;;;5004101;28;20531;-69
2022/04/27 05:41:50;;;;;;;16.90;10.23;;;7.90;99.90;;;;;;4999763;28;20408;-68
2022/04/27 05:44:17;;;;;;;14.02;10.35;;;8.00;99.90;;;;;;5002921;28;20465;-69
2022/04/27 05:46:42;;;;;;;16.23;10.68;;;8.10;99.90;;;;;;5004036;28;20482;-69
2022/04/27 05:49:08;;;;;;;16.15;10.88;;;8.10;99.90;;;;;;5002394;28;20035;-68
2022/04/27 05:51:34;;;;;;;18.00;10.43;;;8.10;99.90;;;;;;5002959;28;20100;-68
2022/04/27 05:54:00;;;;;;;19.77;10.65;;;8.20;99.90;;;;;;5003012;28;20042;-68
2022/04/27 05:56:26;;;;;;;13.50;9.57;;;8.20;99.90;;;;;;4999413;28;20536;-68
2022/04/27 05:58:51;;;;;;;13.35;9.52;;;8.30;99.90;;;;;;5002542;28;20121;-68
2022/04/27 06:01:18;;;;;;;14.00;10.02;;;8.40;99.90;;;;;;5002963;28;20034;-68
2022/04/27 06:03:44;;;;;;;15.85;10.43;;;8.40;99.90;;;;;;5000460;28;20046;-69
2022/04/27 06:06:09;;;;;;;15.65;10.02;;;8.40;99.90;;;;;;5003861;28;20411;-68
2022/04/27 06:08:35;;;;;;;12.60;9.35;;;8.50;99.90;;;;;;5002983;28;20117;-68
2022/04/27 06:11:00;;;;;;;11.68;7.80;;;8.50;99.90;;;;;;5001813;28;20462;-69
2022/04/27 06:13:26;;;;;;;11.52;8.48;;;8.60;99.90;;;;;;5003725;28;20030;-68
2022/04/27 06:15:52;;;;;;;8.70;7.00;;;8.60;99.90;;;;;;5001040;28;20162;-68
2022/04/27 06:18:18;;;;;;;11.05;7.00;;;8.70;99.90;;;;;;5001909;28;20084;-68
2022/04/27 06:20:43;;;;;;;11.38;6.90;;;8.70;99.90;;;;;;5003085;28;20041;-68
2022/04/27 06:23:09;;;;;;;10.05;6.80;;;8.80;99.90;;;;;;5000720;28;20124;-68
2022/04/27 06:25:36;;;;;;;10.25;6.30;;;8.80;99.90;;;;;;5001426;28;20041;-69
2022/04/27 06:28:02;;;;;;;11.48;5.35;;;8.90;99.90;;;;;;5001856;28;20488;-69
2022/04/27 06:30:28;;;;;;;9.65;5.65;;;8.90;99.90;;;;;;5000151;28;20037;-69
2022/04/27 06:32:53;;;;;;;8.13;5.00;;;8.90;99.90;;;;;;5002646;28;20495;-68
2022/04/27 06:35:19;;;;;;;8.02;5.28;;;9.00;99.90;;;;;;5001673;28;20073;-68
2022/04/27 06:37:45;;;;;;;10.07;5.47;;;9.00;99.90;;;;;;4999811;28;20555;-68
2022/04/27 06:40:11;;;;;;;7.63;4.40;;;9.00;99.90;;;;;;5001358;28;20042;-68
2022/04/27 06:42:40;;;;;;;5.30;4.13;;;9.10;99.90;;;;;;5002266;28;20034;-68
2022/04/27 06:45:06;;;;;;;5.45;4.13;;;9.20;99.90;;;;;;5001170;28;20038;-68
2022/04/27 06:47:32;;;;;;;8.32;4.07;;;9.20;99.90;;;;;;5001545;28;20079;-68
2022/04/27 06:49:57;;;;;;;5.32;3.42;;;9.20;99.90;;;;;;5002178;28;20041;-68
2022/04/27 06:52:23;;;;;;;4.90;2.97;;;9.20;99.90;;;;;;5000330;28;20069;-68
2022/04/27 06:54:48;;;;;;;4.68;2.58;;;9.20;99.90;;;;;;5003266;28;20033;-68
2022/04/27 06:57:14;;;;;;;7.03;3.47;;;9.20;99.90;;;;;;5001619;28;20042;-68
2022/04/27 06:59:39;;;;;;;7.05;3.38;;;9.20;99.90;;;;;;5001968;28;20038;-68
2022/04/27 07:02:06;;;;;;;5.72;3.13;;;9.30;99.90;;;;;;5002597;28;20053;-68
2022/04/27 07:04:34;;;;;;;5.55;3.17;;;9.30;99.90;;;;;;5000763;28;20123;-68
2022/04/27 07:07:01;;;;;;;3.15;2.78;;;9.30;99.90;;;;;;5001840;28;20070;-65
2022/04/27 07:09:26;;;;;;;5.50;3.03;;;9.30;99.90;;;;;;5000807;28;20492;-67
2022/04/27 07:11:52;;;;;;;5.32;2.40;;;9.30;99.90;;;;;;5002203;28;20120;-67
2022/04/27 07:14:19;;;;;;;2.63;2.17;;;9.40;99.90;;;;;;5001813;28;20488;-67
2022/04/27 07:16:45;;;;;;;6.28;2.67;;;9.40;99.90;;;;;;5000965;28;20093;-67
2022/04/27 07:19:11;;;;;;;4.38;2.30;;;9.40;99.50;;;;;;5002984;28;20029;-68
2022/04/27 07:21:36;;;;;;;3.55;2.60;;;9.50;99.30;;;;;;5000676;28;20455;-68
2022/04/27 07:24:02;;;;;;;4.40;2.70;;;9.50;99.90;;;;;;5001098;28;20026;-68
2022/04/27 07:26:28;;;;;;;5.90;2.42;;;9.50;99.90;;;;;;5002749;28;20045;-68
2022/04/27 07:28:55;;;;;;;4.55;2.70;;;9.50;98.60;;;;;;4983513;28;20035;-68
2022/04/27 07:31:21;;;;;;;4.30;2.67;;;9.50;99.00;;;;;;4999753;28;20462;-68
2022/04/27 07:33:47;;;;;;;5.47;2.67;;;9.50;98.30;;;;;;5001307;28;20096;-68
2022/04/27 07:36:12;;;;;;;4.78;2.97;;;9.60;98.90;;;;;;5000618;28;20038;-69
2022/04/27 07:38:38;;;;;;;6.78;2.83;;;9.60;99.90;;;;;;5001761;28;20395;-69
2022/04/27 07:41:05;;;;;;;4.28;2.55;;;9.60;99.90;;;;;;5000947;28;20126;-68
2022/04/27 07:43:30;;;;;;;4.75;2.70;;;9.70;97.90;;;;;;4982954;28;20042;-68
2022/04/27 07:45:56;;;;;;;3.38;2.47;;;9.80;99.50;;;;;;4995988;28;20039;-68
2022/04/27 07:48:21;;;;;;;2.90;2.20;;;9.80;97.80;;;;;;4990887;28;20042;-68
2022/04/27 07:50:47;;;;;;;4.18;2.17;;;9.90;98.40;;;;;;4990818;28;20133;-68
2022/04/27 07:53:13;;;;;;;4.35;2.60;;;10.00;98.80;;;;;;4992247;28;20519;-68
2022/04/27 07:55:38;;;;;;;11.48;3.22;;;10.00;98.50;;;;;;4992190;28;20038;-68
2022/04/27 07:58:04;;;;;;;5.53;2.88;;;10.10;97.10;;;;;;4992068;28;20039;-68
2022/04/27 08:00:30;;;;;;;3.30;2.25;;;10.20;93.90;;;;;;4991546;28;20043;-68
2022/04/27 08:02:57;;;;;;;3.83;2.78;;;10.20;93.80;;;;;;4992267;28;20054;-68
2022/04/27 08:05:22;;;;;;;5.15;3.13;;;10.20;93.50;;;;;;4990780;28;20070;-68
2022/04/27 08:07:48;;;;;;;4.68;2.58;;;10.20;94.70;;;;;;4992017;28;20463;-68
2022/04/27 08:10:19;;;;;;;4.53;2.53;;;10.20;89.50;;;;;;4991141;28;20508;-67
2022/04/27 08:12:49;;;;;;;5.93;2.58;;;10.30;90.20;;;;;;4997709;28;20128;-68
2022/04/27 08:15:20;;;;;;;8.55;4.55;;;10.40;91.70;;;;;;5000850;28;20088;-68
2022/04/27 08:17:54;;;;;;;6.75;3.75;;;10.40;93.30;;;;;;4996910;28;20038;-68
2022/04/27 08:23:07;;;;;;;6.75;2.38;;;10.50;91.00;;;;;;4993391;28;20050;-68
2022/04/27 08:25:34;;;;;;;5.90;2.30;;;10.40;87.10;;;;;;4995146;28;20401;-68
2022/04/27 08:27:59;;;;;;;3.95;2.42;;;10.40;90.40;;;;;;4995257;28;20038;-68
2022/04/27 08:30:25;;;;;;;6.30;2.83;;;10.40;89.50;;;;;;4993684;28;20052;-68
2022/04/27 08:32:50;;;;;;;6.97;2.78;;;10.40;87.00;;;;;;4995379;28;20484;-68
2022/04/27 08:35:16;;;;;;;4.32;2.30;;;10.50;86.80;;;;;;4993975;28;20038;-68
2022/04/27 08:37:41;;;;;;;6.30;2.33;;;10.50;86.30;;;;;;4995131;28;20467;-68
2022/04/27 08:40:08;;;;;;;5.65;2.45;;;10.50;83.00;;;;;;4993571;28;20508;-68
2022/04/27 08:42:34;;;;;;;4.63;3.08;;;10.60;81.20;;;;;;5002032;28;20038;-68
2022/04/27 08:45:00;;;;;;;4.70;3.10;;;10.60;82.30;;;;;;5005787;28;20045;-67
2022/04/27 08:47:27;;;;;;;6.35;3.08;;;10.70;85.20;;;;;;4999664;28;20038;-67
2022/04/27 08:49:53;;;;;;;3.03;2.38;;;10.60;79.00;;;;;;4997214;28;20125;-68
2022/04/27 08:52:20;;;;;;;6.60;2.53;;;10.70;82.20;;;;;;4994730;28;20121;-70
2022/04/27 08:54:48;;;;;;;6.40;2.28;;;10.70;83.00;;;;;;4993512;28;20038;-70
2022/04/27 08:57:14;;;;;;;6.78;2.50;;;10.60;79.70;;;;;;4994849;28;20049;-70
2022/04/27 08:59:39;;;;;;;8.23;2.35;;;10.60;79.70;;;;;;4994785;28;20394;-69
2022/04/27 09:02:27;;;;;;;7.32;2.30;;;10.70;80.20;;;;;;4994460;28;20054;-70
2022/04/27 09:05:10;;;;;;;4.28;1.95;;;10.80;81.10;;;;;;4994649;28;20034;-70
2022/04/27 09:07:50;;;;;;;3.85;2.30;;;10.70;81.00;;;;;;4993560;28;20133;-70
2022/04/27 09:10:17;;;;;;;3.55;2.50;;;10.70;79.70;;;;;;4994401;28;20050;-70
2022/04/27 09:12:51;;;;;;;5.63;2.40;;;10.70;79.50;;;;;;4994567;28;20117;-70
2022/04/27 09:15:19;;;;;;;3.45;2.10;;;10.70;79.50;;;;;;4994501;28;20049;-70
2022/04/27 09:20:48;;;;;;;4.38;2.35;;;10.70;79.60;;;;;;4992822;28;20420;-70
2022/04/27 09:23:23;;;;;;;4.65;2.25;;;10.80;81.50;;;;;;4993312;28;20568;-71
2022/04/27 09:25:55;;;;;;;7.68;2.50;;;11.00;81.00;;;;;;5000423;28;20049;-71
2022/04/27 09:28:30;;;;;;;6.53;2.20;;;11.00;79.50;;;;;;4973703;28;20109;-71
2022/04/27 09:30:56;;;;;;;4.68;2.17;;;11.00;79.90;;;;;;4994344;28;20053;-71
2022/04/27 09:33:39;;;;;;;5.60;1.88;;;11.00;80.20;;;;;;5003053;28;20050;-71
2022/04/27 09:36:23;;;;;;;7.60;2.42;;;11.20;78.80;;;;;;5001099;28;20137;-71
2022/04/27 09:38:50;;;;;;;3.13;1.80;;;11.30;78.50;;;;;;4994302;28;20046;-71
2022/04/27 09:41:37;;;;;;;4.00;1.83;;;11.50;76.90;;;;;;4998808;28;20080;-71
2022/04/27 09:44:03;;;;;;;5.90;2.80;;;11.60;74.90;;;;;;5008936;28;20042;-71
2022/04/27 09:46:29;;;;;;;4.63;2.35;;;11.60;74.70;;;;;;5013351;28;20048;-71
2022/04/27 09:49:11;;;;;;;5.47;2.05;;;11.80;72.60;;;;;;5012198;28;20142;-70
2022/04/27 09:51:49;;;;;;;3.25;2.28;;;11.80;72.40;;;;;;5013057;28;20057;-70
2022/04/27 09:54:23;;;;;;;6.13;2.50;;;11.70;74.40;;;;;;5012127;28;20160;-70
2022/04/27 09:56:56;;;;;;;10.25;3.22;;;11.60;74.70;;;;;;5009192;28;20119;-70
2022/04/27 09:59:26;;;;;;;7.60;3.20;;;11.50;73.40;;;;;;4994882;28;20519;-69
2022/04/27 10:01:53;;;;;;;7.40;2.65;;;11.70;74.70;;;;;;5011305;28;20056;-69
2022/04/27 10:04:21;;;;;;;6.97;2.67;;;11.60;74.80;;;;;;5012872;28;20087;-69
2022/04/27 10:06:47;;;;;;;9.18;2.70;;;11.60;75.00;;;;;;5011432;28;20092;-69
2022/04/27 10:09:13;;;;;;;4.90;2.10;;;11.60;74.00;;;;;;5011497;28;20045;-69
2022/04/27 10:11:40;;;;;;;4.28;2.10;;;11.50;78.10;;;;;;5012377;28;20048;-70
2022/04/27 10:14:07;;;;;;;4.10;2.00;;;11.40;75.90;;;;;;5012838;28;20042;-69
2022/04/27 10:16:34;;;;;;;7.47;2.78;;;11.50;78.30;;;;;;5012940;28;20124;-69
2022/04/27 10:19:00;;;;;;;8.35;2.63;;;11.50;85.50;;;;;;5012575;28;20045;-69
2022/04/27 10:21:43;;;;;;;4.63;2.60;;;11.50;84.70;;;;;;5011124;28;20057;-69
2022/04/27 10:24:12;;;;;;;6.53;2.43;;;11.50;80.00;;;;;;5011505;28;20049;-69
2022/04/27 10:26:38;;;;;;;6.22;2.55;;;11.40;83.00;;;;;;5012668;28;20038;-70
2022/04/27 10:29:05;;;;;;;8.73;2.83;;;11.30;86.20;;;;;;5011169;28;20053;-70
2022/04/27 10:31:40;;;;;;;8.10;3.10;;;11.10;89.00;;;;;;5010981;28;20099;-70
2022/04/27 10:34:26;;;;;;;7.50;2.78;;;11.10;87.70;;;;;;5012481;28;20112;-69
2022/04/27 10:36:54;;;;;;;7.47;2.40;;;11.00;86.40;;;;;;5012055;28;20502;-69
2022/04/27 10:39:25;;;;;;;9.23;3.00;;;11.00;88.00;;;;;;5012462;28;20061;-69
2022/04/27 10:41:55;;;;;;;8.90;2.50;;;10.90;90.50;;;;;;5012128;28;20408;-69
2022/04/27 10:44:41;;;;;;;10.45;2.75;;;10.80;91.20;;;;;;5011020;28;20041;-69
2022/04/27 10:47:15;;;;;;;9.23;3.03;;;10.80;91.70;;;;;;5011653;28;20446;-69
2022/04/27 10:49:40;;;;;;;;;;;10.80;93.00;;;;;;5012851;28;20423;-69
2022/04/27 10:52:10;;;;;;;8.77;2.95;;;10.70;94.00;;;;;;5012006;28;19963;-69
2022/04/27 10:54:38;;;;;;;4.47;2.70;;;10.70;94.60;;;;;;5012082;28;20046;-69
2022/04/27 10:57:16;;;;;;;7.05;2.80;;;10.80;95.10;;;;;;5012141;28;20376;-69
2022/04/27 10:59:59;;;;;;;9.25;3.55;;;10.80;94.50;;;;;;5011872;28;20061;-69
2022/04/27 11:02:44;;;;;;;12.07;2.95;;;10.80;94.40;;;;;;5012032;28;20499;-69
2022/04/27 11:05:13;;;;;;;6.60;3.78;;;10.80;95.70;;;;;;5011861;28;20530;-69
2022/04/27 11:07:59;;;;;;;10.85;3.30;;;10.70;94.60;;;;;;5011952;28;20045;-69
2022/04/27 11:10:25;;;;;;;13.00;3.78;;;10.70;94.20;;;;;;5010583;28;20128;-69
2022/04/27 11:12:52;;;;;;;14.63;4.15;;;10.70;95.00;;;;;;5012085;28;20056;-69
2022/04/27 11:15:27;;;;;;;11.35;3.20;;;10.80;96.60;;;;;;5011266;28;20092;-70
2022/04/27 11:18:02;;;;;;;8.80;3.30;;;10.70;96.80;;;;;;5011323;28;20041;-69
2022/04/27 11:20:37;;;;;;;9.88;3.05;;;10.80;96.50;;;;;;5010059;28;20376;-69
2022/04/27 11:23:19;;;;;;;7.32;3.75;;;10.80;97.40;;;;;;5042587;22;20056;-71
2022/04/27 11:25:50;;;;;;;8.32;3.13;;;10.80;97.30;;;;;;5050214;28;20043;-71
2022/04/27 11:28:15;;;;;;;8.10;3.30;;;10.80;96.80;;;;;;5050891;28;20505;-72
2022/04/27 11:30:41;;;;;;;11.93;3.65;;;10.80;96.40;;;;;;5049798;28;20124;-72
2022/04/27 11:33:07;;;;;;;6.45;2.80;;;10.80;97.00;;;;;;5049931;28;20391;-71
2022/04/27 11:35:47;;;;;;;14.70;4.07;;;10.80;97.40;;;;;;5050148;28;20041;-71
2022/04/27 11:38:21;;;;;;;8.77;2.88;;;10.80;98.20;;;;;;5033490;28;20047;-71
2022/04/27 11:40:49;;;;;;;14.85;4.22;;;10.80;98.30;;;;;;5049674;28;20041;-71
2022/04/27 11:43:27;;;;;;;13.85;4.10;;;10.80;98.40;;;;;;5049935;28;20087;-71
2022/04/27 11:45:54;;;;;;;8.48;2.95;;;10.80;97.10;;;;;;5050045;28;20044;-71
2022/04/27 11:48:22;;;;;;;11.85;3.75;;;10.80;99.00;;;;;;5050199;28;20076;-71
2022/04/27 11:50:48;;;;;;;9.77;4.18;;;10.80;98.80;;;;;;5049531;28;20048;-71
2022/04/27 11:53:14;;;;;;;22.52;5.20;;;10.80;98.60;;;;;;5051213;28;20445;-71
2022/04/27 11:55:41;;;;;;;8.48;3.08;;;10.80;98.20;;;;;;5049360;28;20102;-71
2022/04/27 11:58:10;;;;;;;14.80;3.63;;;10.80;98.50;;;;;;5053010;28;20106;-71
2022/04/27 12:00:36;;;;;;;9.93;3.03;;;10.80;97.80;;;;;;5053645;28;20049;-72
2022/04/27 12:03:06;;;;;;;13.52;3.50;;;10.80;98.10;;;;;;5054840;28;20527;-71
2022/04/27 12:05:35;;;;;;;10.55;3.47;;;10.80;98.40;;;;;;5037345;28;20048;-71
2022/04/27 12:08:03;;;;;;;14.55;3.67;;;10.80;97.00;;;;;;5053637;28;20041;-71
2022/04/27 12:10:29;;;;;;;9.48;3.42;;;10.80;97.90;;;;;;5054352;28;20418;-71
2022/04/27 12:12:59;;;;;;;8.43;3.53;;;10.80;98.30;;;;;;5053421;28;20041;-71
2022/04/27 12:15:26;;;;;;;12.93;3.75;;;10.90;99.00;;;;;;5036571;28;20045;-71
2022/04/27 12:17:54;;;;;;;13.70;3.65;;;10.90;97.60;;;;;;5053745;28;20413;-71
2022/04/27 12:20:39;;;;;;;11.35;3.78;;;10.90;97.50;;;;;;5053037;28;20045;-71
2022/04/27 12:23:07;;;;;;;10.57;3.83;;;10.80;96.10;;;;;;5053000;28;20402;-71
2022/04/27 12:25:35;;;;;;;15.10;3.72;;;10.90;96.90;;;;;;5054732;28;20127;-71
2022/04/27 12:28:05;;;;;;;10.18;4.22;;;10.90;97.70;;;;;;5053247;28;20048;-71
2022/04/27 12:30:31;;;;;;;13.95;3.58;;;10.90;97.10;;;;;;5054267;28;20414;-71
2022/04/27 12:32:58;;;;;;;10.45;3.08;;;11.00;97.40;;;;;;5053175;28;20498;-68
2022/04/27 12:38:17;;;;;;;11.93;3.87;;;11.50;96.70;;;;;;5054370;28;20112;-69
2022/04/27 12:40:43;;;;;;;11.07;3.25;;;11.60;95.60;;;;;;5053959;28;20095;-69
2022/04/27 12:43:13;;;;;;;10.63;3.72;;;11.60;93.40;;;;;;5053574;28;20549;-69
2022/04/27 12:45:38;;;;;;;13.43;3.63;;;11.70;93.40;;;;;;5054098;28;20049;-68
2022/04/27 12:48:05;;;;;;;8.40;3.05;;;11.70;93.10;;;;;;5053762;28;20544;-69
2022/04/27 12:50:45;;;;;;;10.15;3.53;;;11.80;92.20;;;;;;5035850;28;20049;-69
2022/04/27 12:53:11;;;;;;;12.20;3.30;;;11.80;90.00;;;;;;5052551;28;20056;-68
2022/04/27 12:55:38;;;;;;;10.38;3.17;;;11.90;90.30;;;;;;5054048;28;20041;-69
2022/04/27 12:58:04;;;;;;;15.93;4.22;;;11.90;90.10;;;;;;5053945;28;20049;-70
2022/04/27 13:00:40;;;;;;;9.75;3.22;;;12.10;88.50;;;;;;5052309;28;20055;-69
2022/04/27 13:03:08;;;;;;;8.63;2.85;;;12.10;90.40;;;;;;5053764;28;20095;-70
2022/04/27 13:05:38;;;;;;;15.85;3.35;;;12.10;90.00;;;;;;5053752;28;20495;-70
2022/04/27 13:08:05;;;;;;;9.48;3.33;;;12.10;89.00;;;;;;5051707;28;20044;-69
2022/04/27 13:13:16;;;;;;;14.07;3.50;;;12.20;84.50;;;;;;5053515;28;20049;-70